Delta, Louisiana
Current Conditions -  °F | °C
As of 6:55 PM on Saturday 22 Nov 2014 (Local Time) from KVKS Reporting Station
Overcast Overcast  
Wind Chill: 18°   Ceiling: 3900
Heat Index: 18°   Visibility: 10mi
Dew Point: 11°   Wind: 6mph
Humidity: 64%   Direction: 120°ESE
Pressure: 30.01"   Gusts: 12mph
Location:  32.33°N, 90.93°W
Report Text: KVKS 230055Z AUTO 12005G10KT 10SM BKN039 OVC046 18/11 A3001 RMK A01
Loading
Personal Weather Stations






























Interactive Weather Map New forecast layout! Learn more

10-Day Weather Forecast

Advertisements
Track Severe Weather on mobile